This is the latest recevied weather packets stored in our database for station/object KQ4OSL. If no packets are shown the sender has not sent any weather packets the latest 10 day(s).
| Time | Temp. | Humidity | Pressure | Rain* | Wind** | Luminosity | Snow |
|---|---|---|---|---|---|---|---|
| 1777986303 | 15.56° C | 83% | 1017 hPa | 0 mm | - | 304 W/m² | - |
| 1777986001 | 15.56° C | 83% | 1017.3 hPa | 0 mm | - | 286 W/m² | - |
| 1777985698 | 15° C | 83% | 1017.1 hPa | 0 mm | - | 265 W/m² | - |
| 1777985395 | 14.44° C | 83% | 1017.2 hPa | 0 mm | - | 253 W/m² | - |
| 1777985092 | 14.44° C | 84% | 1017.1 hPa | 0 mm | - | 236 W/m² | - |
| 1777984787 | 13.89° C | 84% | 1016.9 hPa | 0 mm | - | 221 W/m² | - |
| 1777984484 | 13.89° C | 84% | 1016.8 hPa | 0 mm | - | 204 W/m² | - |
| 1777984180 | 13.33° C | 85% | 1016.8 hPa | 0 mm | - | 189 W/m² | - |
| 1777983878 | 12.22° C | 89% | 1016.8 hPa | 0 mm | - | 174 W/m² | - |
| 1777983574 | 11.11° C | 92% | 1016.5 hPa | 0 mm | - | 150 W/m² | - |
| 1777983272 | 10.56° C | 94% | 1016.9 hPa | 0 mm | - | 38 W/m² | - |
| 1777982967 | 10° C | 98% | 1016.5 hPa | 0 mm | - | 100 W/m² | - |
| 1777982664 | 8.89° C | 99% | 1016.8 hPa | 0 mm | - | 79 W/m² | - |
| 1777982363 | 8.89° C | 98% | 1016.3 hPa | 0 mm | - | 37 W/m² | - |
| 1777982060 | 8.33° C | 99% | 1016.4 hPa | 0 mm | - | 25 W/m² | - |
| 1777981758 | 8.33° C | 99% | 1016.5 hPa | 0 mm | - | 26 W/m² | - |
| 1777981454 | 8.33° C | 99% | 1016.4 hPa | 0 mm | - | 22 W/m² | - |
| 1777981150 | 7.78° C | 99% | 1016.5 hPa | 0 mm | - | 22 W/m² | - |
| 1777980847 | 7.78° C | 99% | 1016.3 hPa | 0 mm | - | 19 W/m² | - |
| 1777980543 | 7.78° C | 98% | 1016.3 hPa | 0 mm | - | 17 W/m² | - |
| 1777980241 | 7.78° C | 98% | 1016.2 hPa | 0 mm | - | 12 W/m² | - |
| 1777979936 | 8.33° C | 99% | 1016 hPa | 0 mm | - | 12 W/m² | - |
| 1777979631 | 8.33° C | 99% | 1015.9 hPa | 0 mm | - | 12 W/m² | - |
| 1777979327 | 7.78° C | 99% | 1016.1 hPa | 0 mm | - | 11 W/m² | - |
| 1777979025 | 7.78° C | 99% | 1016.2 hPa | 0 mm | - | 8 W/m² | - |
* Rain latest hour (hover to see other rain measurements)
** Current wind speed in m/s (hover to see current wind gust speed)